createdAt,value
2019-02-19T00:01:55.205Z,31.17
2019-02-19T00:04:21.843Z,32.78
2019-02-19T00:06:48.504Z,32.40
2019-02-19T00:09:15.029Z,36.77
2019-02-19T00:11:41.818Z,37.00
2019-02-19T00:14:08.549Z,36.05
2019-02-19T00:16:35.258Z,36.10
2019-02-19T00:19:01.938Z,34.00
2019-02-19T00:21:28.525Z,32.73
2019-02-19T00:23:55.060Z,33.75
2019-02-19T00:26:21.642Z,36.93
2019-02-19T00:28:48.208Z,39.30
2019-02-19T00:31:14.804Z,38.53
2019-02-19T00:33:41.401Z,34.95
2019-02-19T00:36:07.990Z,40.40
2019-02-19T00:38:34.529Z,35.43
2019-02-19T00:41:01.094Z,38.30
2019-02-19T00:43:30.869Z,35.88
2019-02-19T00:45:57.398Z,37.93
2019-02-19T00:48:23.950Z,35.33
2019-02-19T00:50:50.518Z,36.53
2019-02-19T00:53:17.052Z,32.70
2019-02-19T00:55:43.598Z,36.03
2019-02-19T00:58:10.148Z,33.95
2019-02-19T01:00:36.707Z,31.50
2019-02-19T01:03:03.244Z,29.30
2019-02-19T01:05:29.986Z,29.70
2019-02-19T01:07:56.515Z,30.35
2019-02-19T01:10:25.729Z,29.40
2019-02-19T01:12:53.743Z,30.43
2019-02-19T01:15:25.420Z,34.60
2019-02-19T01:17:50.529Z,35.63
2019-02-19T01:20:18.545Z,35.63
2019-02-19T01:22:48.671Z,32.63
2019-02-19T01:25:20.946Z,33.90
2019-02-19T01:27:54.315Z,34.23
2019-02-19T01:30:27.528Z,35.60
2019-02-19T01:32:57.342Z,33.63
2019-02-19T01:35:24.396Z,34.13
2019-02-19T01:37:51.736Z,32.78
2019-02-19T01:40:20.010Z,32.15
2019-02-19T01:45:37.895Z,33.48
2019-02-19T01:48:04.921Z,35.13
2019-02-19T01:50:33.779Z,35.90
2019-02-19T01:53:01.476Z,34.75
2019-02-19T01:55:28.277Z,32.08
2019-02-19T01:57:55.547Z,33.73
2019-02-19T02:00:22.093Z,33.67
2019-02-19T02:02:48.692Z,35.33
2019-02-19T02:05:15.270Z,35.58
2019-02-19T02:07:42.783Z,37.30
2019-02-19T02:10:09.338Z,40.30
2019-02-19T02:12:36.010Z,36.25
2019-02-19T02:15:02.675Z,37.30
2019-02-19T02:17:29.449Z,38.48
2019-02-19T02:19:56.035Z,36.88
2019-02-19T02:22:22.608Z,38.53
2019-02-19T02:24:49.172Z,35.33
2019-02-19T02:27:15.844Z,36.58
2019-02-19T02:29:45.504Z,28.85
2019-02-19T02:32:12.039Z,35.23
2019-02-19T02:34:38.592Z,38.02
2019-02-19T02:37:05.166Z,36.05
2019-02-19T02:39:31.733Z,36.68
2019-02-19T02:41:58.701Z,36.53
2019-02-19T02:44:25.287Z,37.42
2019-02-19T02:46:51.907Z,36.77
2019-02-19T02:49:18.552Z,35.65
2019-02-19T02:51:45.167Z,35.60
2019-02-19T02:54:12.825Z,34.90
2019-02-19T02:56:39.387Z,32.93
2019-02-19T02:59:05.974Z,32.03
2019-02-19T03:01:32.530Z,37.53
2019-02-19T03:03:59.086Z,34.40
2019-02-19T03:06:27.575Z,34.25
2019-02-19T03:08:54.217Z,38.05
2019-02-19T03:11:20.792Z,35.63
2019-02-19T03:13:47.439Z,38.05
2019-02-19T03:16:13.995Z,36.95
2019-02-19T03:18:40.561Z,38.00
2019-02-19T03:21:07.163Z,31.48
2019-02-19T03:23:33.761Z,33.98
2019-02-19T03:26:00.341Z,33.80
2019-02-19T03:28:26.916Z,34.73
2019-02-19T03:30:53.477Z,34.50
2019-02-19T03:33:20.024Z,36.15
2019-02-19T03:35:46.598Z,38.85
2019-02-19T03:38:13.173Z,36.95
2019-02-19T03:40:39.754Z,37.78
2019-02-19T03:43:06.306Z,37.35
2019-02-19T03:45:32.865Z,35.28
2019-02-19T03:47:59.430Z,33.83
2019-02-19T03:50:26.016Z,35.45
2019-02-19T03:52:52.565Z,35.50
2019-02-19T03:55:19.155Z,36.28
2019-02-19T03:57:45.780Z,37.13
2019-02-19T04:00:12.435Z,35.73
2019-02-19T04:02:39.085Z,36.38
2019-02-19T04:05:05.683Z,36.28
2019-02-19T04:07:32.326Z,32.95
2019-02-19T04:09:58.931Z,35.58
2019-02-19T04:12:25.519Z,32.80
2019-02-19T04:14:52.056Z,33.38
2019-02-19T04:17:18.605Z,34.55
2019-02-19T04:19:45.178Z,35.75
2019-02-19T04:22:11.742Z,37.88
2019-02-19T04:24:38.291Z,36.17
2019-02-19T04:27:04.939Z,36.28
2019-02-19T04:29:31.594Z,35.63
2019-02-19T04:31:58.164Z,34.75
2019-02-19T04:34:24.997Z,34.55
2019-02-19T04:36:51.820Z,35.43
2019-02-19T04:39:18.385Z,30.32
2019-02-19T04:41:44.963Z,32.10
2019-02-19T04:44:11.589Z,33.80
2019-02-19T04:46:38.191Z,34.03
2019-02-19T04:49:04.854Z,36.93
2019-02-19T04:51:31.391Z,35.05
2019-02-19T04:53:57.934Z,34.98
2019-02-19T04:56:24.502Z,36.00
2019-02-19T04:58:51.120Z,32.83
2019-02-19T05:01:17.707Z,39.23
2019-02-19T05:03:44.283Z,36.08
2019-02-19T05:06:10.844Z,35.55
2019-02-19T05:08:37.416Z,36.08
2019-02-19T05:11:04.238Z,34.00
2019-02-19T05:13:30.991Z,32.38
2019-02-19T05:15:57.629Z,33.15
2019-02-19T05:18:24.348Z,32.98
2019-02-19T05:20:51.083Z,33.70
2019-02-19T05:23:17.757Z,34.35
2019-02-19T05:25:44.333Z,34.55
2019-02-19T05:28:10.898Z,42.78
2019-02-19T05:30:37.502Z,44.58
2019-02-19T05:33:04.092Z,37.98
2019-02-19T05:35:30.654Z,39.08
2019-02-19T05:37:57.210Z,39.10
2019-02-19T05:40:23.786Z,36.65
2019-02-19T05:42:50.338Z,37.85
2019-02-19T05:45:16.898Z,42.95
2019-02-19T05:47:43.487Z,40.17
2019-02-19T05:50:10.042Z,38.88
2019-02-19T05:52:36.591Z,38.25
2019-02-19T05:55:05.474Z,39.42
2019-02-19T05:57:32.062Z,35.43
2019-02-19T05:59:58.625Z,36.10
2019-02-19T06:02:25.213Z,41.70
2019-02-19T06:04:52.871Z,36.85
2019-02-19T06:07:19.428Z,33.02
2019-02-19T06:09:45.999Z,37.95
2019-02-19T06:12:13.813Z,40.75
2019-02-19T06:14:40.586Z,36.23
2019-02-19T06:17:08.104Z,36.03
2019-02-19T06:19:34.640Z,37.67
2019-02-19T06:22:01.186Z,36.95
2019-02-19T06:24:27.736Z,38.78
2019-02-19T06:26:54.301Z,37.50
2019-02-19T06:29:20.871Z,38.50
2019-02-19T06:31:47.450Z,37.63
2019-02-19T06:34:14.367Z,38.78
2019-02-19T06:36:41.218Z,38.48
2019-02-19T06:39:07.768Z,38.23
2019-02-19T06:41:34.313Z,38.65
2019-02-19T06:44:00.865Z,44.08
2019-02-19T06:46:27.419Z,46.65
2019-02-19T06:48:55.167Z,49.58
2019-02-19T06:51:21.710Z,46.58
2019-02-19T06:53:48.262Z,45.03
2019-02-19T06:56:14.788Z,47.38
2019-02-19T06:58:41.328Z,45.23
2019-02-19T07:01:07.894Z,45.78
2019-02-19T07:03:39.093Z,47.25
2019-02-19T07:06:05.703Z,48.55
2019-02-19T07:08:32.276Z,45.17
2019-02-19T07:10:58.844Z,51.42
2019-02-19T07:13:25.439Z,54.15
2019-02-19T07:15:52.039Z,53.50
2019-02-19T07:18:18.573Z,52.83
2019-02-19T07:20:45.164Z,51.80
2019-02-19T07:23:11.708Z,49.53
2019-02-19T07:25:38.262Z,54.63
2019-02-19T07:28:04.843Z,53.38
2019-02-19T07:30:31.402Z,55.23
2019-02-19T07:32:57.921Z,49.90
2019-02-19T07:35:24.486Z,49.20
2019-02-19T07:37:51.060Z,50.85
2019-02-19T07:40:17.627Z,46.48
2019-02-19T07:42:44.126Z,48.08
2019-02-19T07:45:12.083Z,49.55
2019-02-19T07:47:38.639Z,51.42
2019-02-19T07:50:08.012Z,56.02
2019-02-19T07:52:34.570Z,55.63
2019-02-19T07:55:01.098Z,52.78
2019-02-19T07:57:27.667Z,55.00
2019-02-19T07:59:54.206Z,53.38
2019-02-19T08:02:21.875Z,53.28
2019-02-19T08:04:48.423Z,43.55
2019-02-19T08:07:14.995Z,44.83
2019-02-19T08:09:41.582Z,45.70
2019-02-19T08:12:08.133Z,37.10
2019-02-19T08:14:35.171Z,36.23
2019-02-19T08:17:01.734Z,41.40
2019-02-19T08:19:28.899Z,43.10
2019-02-19T08:21:55.489Z,43.75
2019-02-19T08:24:22.017Z,44.48
2019-02-19T08:26:48.597Z,40.63
2019-02-19T08:29:15.150Z,40.23
2019-02-19T08:31:41.740Z,38.42
2019-02-19T08:34:08.301Z,35.63
2019-02-19T08:36:34.857Z,36.17
2019-02-19T08:39:01.436Z,34.73
2019-02-19T08:41:29.959Z,35.73
2019-02-19T08:43:56.529Z,34.83
2019-02-19T08:46:23.076Z,35.88
2019-02-19T08:48:49.619Z,35.40
2019-02-19T08:51:16.177Z,36.40
2019-02-19T08:53:42.720Z,35.75
2019-02-19T08:56:09.300Z,53.70
2019-02-19T08:58:35.852Z,189.93
2019-02-19T09:01:02.381Z,189.57
2019-02-19T09:03:28.929Z,254.10
2019-02-19T09:05:56.711Z,295.50
2019-02-19T09:08:23.869Z,277.62
2019-02-19T09:10:50.428Z,285.45
2019-02-19T09:13:17.132Z,177.60
2019-02-19T09:15:43.739Z,96.35
2019-02-19T09:18:10.333Z,52.73
2019-02-19T09:20:41.506Z,47.15
2019-02-19T09:26:08.169Z,35.13
2019-02-19T09:31:26.050Z,55.28
2019-02-19T09:33:52.588Z,53.10
2019-02-19T09:36:19.163Z,55.83
2019-02-19T09:38:45.710Z,51.30
2019-02-19T09:41:12.266Z,43.08
2019-02-19T09:43:38.863Z,39.90
2019-02-19T09:46:05.432Z,40.00
2019-02-19T09:48:31.991Z,46.50
2019-02-19T09:50:58.546Z,39.95
2019-02-19T09:53:25.211Z,42.17
2019-02-19T09:55:51.752Z,37.45
2019-02-19T09:58:18.310Z,35.78
2019-02-19T10:00:44.871Z,37.38
2019-02-19T10:03:11.523Z,37.50
2019-02-19T10:05:38.086Z,37.98
2019-02-19T10:08:04.748Z,38.75
2019-02-19T10:10:31.336Z,38.15
2019-02-19T10:13:00.769Z,48.87
2019-02-19T10:15:27.646Z,43.92
2019-02-19T10:17:54.334Z,43.40
2019-02-19T10:20:22.066Z,41.33
2019-02-19T10:22:48.639Z,44.73
2019-02-19T10:25:15.207Z,50.38
2019-02-19T10:27:41.857Z,47.40
2019-02-19T10:30:14.371Z,50.58
2019-02-19T10:32:41.838Z,51.15
2019-02-19T10:35:09.943Z,63.17
2019-02-19T10:37:36.517Z,61.53
2019-02-19T10:40:06.053Z,52.40
2019-02-19T10:42:32.776Z,51.15
2019-02-19T10:45:00.572Z,51.08
2019-02-19T10:47:27.177Z,49.25
2019-02-19T10:49:53.755Z,50.38
2019-02-19T10:52:20.373Z,48.85
2019-02-19T10:54:47.023Z,45.48
2019-02-19T10:57:13.579Z,43.13
2019-02-19T10:59:40.140Z,42.88
2019-02-19T11:02:06.719Z,42.73
2019-02-19T11:04:33.299Z,42.73
2019-02-19T11:06:59.878Z,44.98
2019-02-19T11:09:27.086Z,45.73
2019-02-19T11:11:53.681Z,45.40
2019-02-19T11:14:20.318Z,44.58
2019-02-19T11:16:48.759Z,43.52
2019-02-19T11:19:21.778Z,44.63
2019-02-19T11:21:49.971Z,41.75
2019-02-19T11:24:17.901Z,42.58
2019-02-19T11:26:45.348Z,41.75
2019-02-19T11:29:11.964Z,42.67
2019-02-19T11:31:38.569Z,41.35
2019-02-19T11:34:05.130Z,39.50
2019-02-19T11:36:31.704Z,40.38
2019-02-19T11:38:58.386Z,40.23
2019-02-19T11:41:24.935Z,36.77
2019-02-19T11:43:51.508Z,37.93
2019-02-19T11:46:18.077Z,35.13
2019-02-19T11:48:44.650Z,35.48
2019-02-19T11:51:11.231Z,32.40
2019-02-19T11:53:37.819Z,35.55
2019-02-19T11:56:04.331Z,36.03
2019-02-19T11:58:32.073Z,26.93
2019-02-19T12:00:58.644Z,24.02
2019-02-19T12:03:25.199Z,25.43
2019-02-19T12:05:51.741Z,24.25
2019-02-19T12:08:18.288Z,25.43
2019-02-19T12:10:46.054Z,22.45
2019-02-19T12:13:12.681Z,28.07
2019-02-19T12:15:39.248Z,23.65
2019-02-19T12:18:05.821Z,21.82
2019-02-19T12:20:32.413Z,22.75
2019-02-19T12:22:58.973Z,22.35
2019-02-19T12:25:25.563Z,22.17
2019-02-19T12:27:52.095Z,21.73
2019-02-19T12:30:18.880Z,20.32
2019-02-19T12:32:45.417Z,18.77
2019-02-19T12:35:11.998Z,18.90
2019-02-19T12:37:38.678Z,21.45
2019-02-19T12:40:08.149Z,19.62
2019-02-19T12:42:34.683Z,20.00
2019-02-19T12:45:01.258Z,19.73
2019-02-19T12:47:28.002Z,19.10
2019-02-19T12:49:54.564Z,17.57
2019-02-19T12:52:21.114Z,18.42
2019-02-19T12:54:47.768Z,17.75
2019-02-19T12:57:14.741Z,16.45
2019-02-19T12:59:41.465Z,16.87
2019-02-19T13:02:08.023Z,16.82
2019-02-19T13:04:34.595Z,20.27
2019-02-19T13:07:01.152Z,19.42
2019-02-19T13:09:27.739Z,19.05
2019-02-19T13:11:54.282Z,19.30
2019-02-19T13:14:20.841Z,18.45
2019-02-19T13:16:47.415Z,18.75
2019-02-19T13:19:13.968Z,18.52
2019-02-19T13:21:40.812Z,18.55
2019-02-19T13:24:07.334Z,19.07
2019-02-19T13:26:33.981Z,17.65
2019-02-19T13:29:00.571Z,18.30
2019-02-19T13:31:27.139Z,18.65
2019-02-19T13:33:53.681Z,20.12
2019-02-19T13:36:20.256Z,19.15
2019-02-19T13:38:46.821Z,19.10
2019-02-19T13:41:13.397Z,20.23
2019-02-19T13:43:39.980Z,19.87
2019-02-19T13:46:06.547Z,20.52
2019-02-19T13:48:33.111Z,21.30
2019-02-19T13:50:59.688Z,20.62
2019-02-19T13:53:28.142Z,20.97
2019-02-19T13:55:56.607Z,20.05
2019-02-19T13:58:23.197Z,20.82
2019-02-19T14:00:50.663Z,21.12
2019-02-19T14:03:17.229Z,20.97
2019-02-19T14:05:43.784Z,19.73
2019-02-19T14:08:14.468Z,19.37
2019-02-19T14:10:38.710Z,19.57
2019-02-19T14:13:05.261Z,20.55
2019-02-19T14:15:48.752Z,22.35
2019-02-19T14:18:17.209Z,20.60
2019-02-19T14:21:04.061Z,19.48
2019-02-19T14:23:49.130Z,19.62
2019-02-19T14:26:17.609Z,19.87
2019-02-19T14:28:46.157Z,19.07
2019-02-19T14:31:20.945Z,20.37
2019-02-19T14:34:01.538Z,19.23
2019-02-19T14:36:46.853Z,20.68
2019-02-19T14:39:27.576Z,20.72
2019-02-19T14:41:56.067Z,20.95
2019-02-19T14:44:36.768Z,19.42
2019-02-19T14:47:20.554Z,20.62
2019-02-19T14:49:48.993Z,20.10
2019-02-19T14:52:21.412Z,20.92
2019-02-19T14:54:49.886Z,20.97
2019-02-19T14:57:30.616Z,21.30
2019-02-19T15:00:15.870Z,20.32
2019-02-19T15:02:53.589Z,33.85
2019-02-19T15:05:24.938Z,36.35
2019-02-19T15:08:10.240Z,26.90
2019-02-19T15:10:41.743Z,27.65
2019-02-19T15:13:10.207Z,26.65
2019-02-19T15:15:55.157Z,25.37
2019-02-19T15:18:40.352Z,31.33
2019-02-19T15:21:11.812Z,43.52
2019-02-19T15:23:43.406Z,36.42
2019-02-19T15:26:18.167Z,39.70
2019-02-19T15:28:52.580Z,26.68
2019-02-19T15:31:27.129Z,29.25
2019-02-19T15:34:13.774Z,31.10
2019-02-19T15:36:52.939Z,32.23
2019-02-19T15:39:27.415Z,26.87
2019-02-19T15:42:05.832Z,26.27
2019-02-19T15:44:34.301Z,26.33
2019-02-19T15:47:23.955Z,25.80
2019-02-19T15:50:01.573Z,24.60
2019-02-19T15:52:48.057Z,23.65
2019-02-19T15:55:16.508Z,23.50
2019-02-19T15:57:49.162Z,23.90
2019-02-19T16:03:21.472Z,24.55
2019-02-19T16:05:59.290Z,26.45
2019-02-19T16:08:27.895Z,26.35
2019-02-19T16:10:57.374Z,24.55
2019-02-19T16:16:44.698Z,26.60
2019-02-19T16:19:32.671Z,27.55
2019-02-19T16:22:02.383Z,27.48
2019-02-19T16:24:44.453Z,26.07
2019-02-19T16:27:16.904Z,23.42
2019-02-19T16:29:49.479Z,27.60
2019-02-19T16:32:31.654Z,28.83
2019-02-19T16:35:01.441Z,28.20
2019-02-19T16:40:40.143Z,30.02
2019-02-19T16:43:11.404Z,34.78
2019-02-19T16:46:04.230Z,34.33
2019-02-19T16:54:45.143Z,37.35
2019-02-19T16:57:14.403Z,38.75
2019-02-19T17:00:10.840Z,39.15
2019-02-19T17:02:39.389Z,39.15
2019-02-19T17:08:28.750Z,40.08
2019-02-19T17:13:58.702Z,37.05
2019-02-19T17:20:00.246Z,43.13
2019-02-19T17:22:32.704Z,45.40
2019-02-19T17:25:14.976Z,46.10
2019-02-19T17:27:46.603Z,42.75
2019-02-19T17:30:18.211Z,40.92
2019-02-19T17:32:46.846Z,42.53
2019-02-19T17:38:39.899Z,39.42
2019-02-19T17:41:19.724Z,42.20
2019-02-19T17:46:55.313Z,50.17
2019-02-19T17:49:31.631Z,43.63
2019-02-19T17:52:11.330Z,41.35
2019-02-19T17:54:42.734Z,42.38
2019-02-19T17:57:11.567Z,49.70
2019-02-19T17:59:46.092Z,47.00
2019-02-19T18:02:14.759Z,47.23
2019-02-19T18:04:46.327Z,44.05
2019-02-19T18:07:15.092Z,43.52
2019-02-19T18:09:43.982Z,44.05
2019-02-19T18:12:12.863Z,45.90
2019-02-19T18:14:41.635Z,45.17
2019-02-19T18:17:12.934Z,45.05
2019-02-19T18:19:39.576Z,44.83
2019-02-19T18:22:06.105Z,46.48
2019-02-19T18:24:32.661Z,50.58
2019-02-19T18:26:59.249Z,44.20
2019-02-19T18:29:25.800Z,46.58
2019-02-19T18:31:52.390Z,46.90
2019-02-19T18:34:18.945Z,47.83
2019-02-19T18:36:45.537Z,49.73
2019-02-19T18:39:12.303Z,48.55
2019-02-19T18:41:39.303Z,51.13
2019-02-19T18:44:05.892Z,49.80
2019-02-19T18:46:32.478Z,52.62
2019-02-19T18:48:59.031Z,54.45
2019-02-19T18:51:25.599Z,54.20
2019-02-19T18:53:52.223Z,65.40
2019-02-19T18:56:18.847Z,51.55
2019-02-19T18:58:45.583Z,50.03
2019-02-19T19:01:12.189Z,51.77
2019-02-19T19:03:38.972Z,57.30
2019-02-19T19:06:06.851Z,54.42
2019-02-19T19:08:33.505Z,57.67
2019-02-19T19:11:01.406Z,59.18
2019-02-19T19:13:28.006Z,58.73
2019-02-19T19:15:54.672Z,64.80
2019-02-19T19:18:21.290Z,61.00
2019-02-19T19:20:47.840Z,65.62
2019-02-19T19:23:14.455Z,61.77
2019-02-19T19:25:41.002Z,61.73
2019-02-19T19:28:07.608Z,62.65
2019-02-19T19:30:34.183Z,61.75
2019-02-19T19:33:00.742Z,63.50
2019-02-19T19:35:27.411Z,65.10
2019-02-19T19:37:54.247Z,63.33
2019-02-19T19:40:20.930Z,63.55
2019-02-19T19:42:47.610Z,63.85
2019-02-19T19:45:14.231Z,66.77
2019-02-19T19:47:40.804Z,72.32
2019-02-19T19:50:08.878Z,66.87
2019-02-19T19:52:35.568Z,67.47
2019-02-19T19:55:02.210Z,65.03
2019-02-19T19:57:28.915Z,69.97
2019-02-19T19:59:55.523Z,70.85
2019-02-19T20:02:22.126Z,71.85
2019-02-19T20:04:48.816Z,68.95
2019-02-19T20:07:15.423Z,65.90
2019-02-19T20:09:42.108Z,67.45
2019-02-19T20:12:08.789Z,63.45
2019-02-19T20:14:35.421Z,70.00
2019-02-19T20:17:02.039Z,66.87
2019-02-19T20:19:28.711Z,65.60
2019-02-19T20:21:55.324Z,66.62
2019-02-19T20:24:21.967Z,70.60
2019-02-19T20:26:48.674Z,67.37
2019-02-19T20:29:15.296Z,62.60
2019-02-19T20:31:42.003Z,61.90
2019-02-19T20:34:08.683Z,74.15
2019-02-19T20:36:35.366Z,71.30
2019-02-19T20:39:02.438Z,66.12
2019-02-19T20:41:30.901Z,64.75
2019-02-19T20:43:57.554Z,67.82
2019-02-19T20:46:24.246Z,64.75
2019-02-19T20:48:50.972Z,63.48
2019-02-19T20:51:17.561Z,59.85
2019-02-19T20:53:44.114Z,62.15
2019-02-19T20:56:10.779Z,63.65
2019-02-19T20:58:37.450Z,64.07
2019-02-19T21:01:04.034Z,62.98
2019-02-19T21:03:30.937Z,63.90
2019-02-19T21:05:57.542Z,57.38
2019-02-19T21:08:24.233Z,66.57
2019-02-19T21:10:50.871Z,68.52
2019-02-19T21:13:17.450Z,67.12
2019-02-19T21:15:44.090Z,66.80
2019-02-19T21:18:10.878Z,60.63
2019-02-19T21:20:37.462Z,65.97
2019-02-19T21:23:04.456Z,59.48
2019-02-19T21:25:31.389Z,66.67
2019-02-19T21:27:58.203Z,66.12
2019-02-19T21:30:24.901Z,64.22
2019-02-19T21:32:51.667Z,67.80
2019-02-19T21:35:18.331Z,62.83
2019-02-19T21:37:44.981Z,66.95
2019-02-19T21:40:15.062Z,62.35
2019-02-19T21:42:42.023Z,60.60
2019-02-19T21:45:11.270Z,62.95
2019-02-19T21:47:39.177Z,65.37
2019-02-19T21:50:08.685Z,74.58
2019-02-19T21:52:35.482Z,72.87
2019-02-19T21:55:04.552Z,71.35
2019-02-19T21:57:31.922Z,67.15
2019-02-19T21:59:58.553Z,70.47
2019-02-19T22:02:25.229Z,68.95
2019-02-19T22:04:51.981Z,63.20
2019-02-19T22:07:18.634Z,68.15
2019-02-19T22:09:45.401Z,76.28
2019-02-19T22:12:11.966Z,76.28
2019-02-19T22:14:38.613Z,69.70
2019-02-19T22:17:06.382Z,73.67
2019-02-19T22:19:33.070Z,70.25
2019-02-19T22:22:03.461Z,66.53
2019-02-19T22:24:36.074Z,66.33
2019-02-19T22:27:04.430Z,76.53
2019-02-19T22:29:31.198Z,79.37
2019-02-19T22:31:57.786Z,80.65
2019-02-19T22:34:24.368Z,85.28
2019-02-19T22:36:50.985Z,77.80
2019-02-19T22:39:17.530Z,70.65
2019-02-19T22:41:44.060Z,75.40
2019-02-19T22:44:11.605Z,75.37
2019-02-19T22:46:38.272Z,73.07
2019-02-19T22:49:04.843Z,69.53
2019-02-19T22:51:31.420Z,73.00
2019-02-19T22:54:02.894Z,70.83
2019-02-19T22:56:31.359Z,69.32
2019-02-19T22:58:58.229Z,64.32
2019-02-19T23:01:27.184Z,68.75
2019-02-19T23:03:54.524Z,68.17
2019-02-19T23:06:21.183Z,66.55
2019-02-19T23:08:47.762Z,64.67
2019-02-19T23:11:14.302Z,66.85
2019-02-19T23:13:40.958Z,66.35
2019-02-19T23:16:07.517Z,65.30
2019-02-19T23:18:34.035Z,64.80
2019-02-19T23:21:00.591Z,64.97
2019-02-19T23:23:27.243Z,59.42
2019-02-19T23:25:53.886Z,58.65
2019-02-19T23:28:20.469Z,67.00
2019-02-19T23:30:47.131Z,61.68
2019-02-19T23:33:13.821Z,58.35
2019-02-19T23:35:48.119Z,60.73
2019-02-19T23:38:14.678Z,63.78
2019-02-19T23:40:41.248Z,59.88
2019-02-19T23:43:07.834Z,53.52
2019-02-19T23:45:34.684Z,69.77
2019-02-19T23:48:01.421Z,66.90
2019-02-19T23:50:28.099Z,63.10
2019-02-19T23:52:54.691Z,66.70
2019-02-19T23:55:21.269Z,72.32
2019-02-19T23:57:47.837Z,65.83
